Kassel, Tyskland

02:41 PM CEST on Oktober 24, 2014 (GMT +0200)
Kassel Bettenhausen | Change Station
CLOSE
Current Station
Personal Weather Stations
Location: Kassel, HESSEN
Elevation: 466 ft
Nearby Weather Stations

Elev 466 ft 51.31 °N, 9.53 °E | Updated 29 seconds ago

Partly Cloudy
Växlande molnighet
56.8 °F
Feels Like 56.8 °F
N
3.1
Vind Växlande Vind from Sydlig
Gusts 3.1 miles/tim

Idag
High -- | Low -- °F
--% Chance of Precip.
Yesterday
High -- | Low -- °F
Precip. -- tum
8:00 AM 6:11 PM
Nymåne, 0% visible
Lufttryck 30.15 tum
Sikt 6.2 miles
Molnigt Few 3100 ft
Daggpunkt 47 °F
Luftfuktighet 70%
Rainfall 0.00 tum
Snow Depth Not available.
UV 2 out of 12
Pollen Not available.
Air Quality Not available.
Flu Activity Not available.
METAR EDVK 241220Z 19009KT 9999 FEW031 13/06 Q1021 RMK ATIS R

More Conditions Fewer Conditions

Lufttryck 30.15 tum
Sikt 6.2 miles
Molnigt Few 3100 ft
Daggpunkt 47 °F
Luftfuktighet 70%
Rainfall 0.00 tum
Snow Depth Not available.
UV 2 out of 12
Pollen Not available.
Air Quality Not available.
Flu Activity Not available.
METAR EDVK 241220Z 19009KT 9999 FEW031 13/06 Q1021 RMK ATIS R

More Conditions Fewer Conditions

10-Day Weather Forecast

Almanac

Astronomi

Oct. 24, 2014 Rise Set
Actual Time 8:00 AM CEST 6:11 PM CEST
Civil Twilight 7:26 AM CEST 6:45 PM CEST
Nautical Twilight 6:47 AM CEST 7:23 PM CEST
Astronomical Twilight 6:09 AM CEST 8:02 PM CEST
Månen 8:25 AM CEST 6:35 PM CEST
Length Of Visible Light 11h 18m
Dagens längd
10h 10m
Tomorrow will be 3m 41s shorter.
Nymåne, 0% of the Moon is Illuminated
Idag
Nymåne
Oct 30
Första kvarteret
Nov 6
Fullmåne
Nov 14
Sista kvarteret
Nov 22
New

Yesterday's Extremes

Country Highs Country Lows

Community

WunderPhotos

Upload Photos

1,764,544 photos uploaded!

Nearby

Snödjup

Not available.

Earthquake Activity

Stad Distance Mag. Time & Date
No recent earthquake activity has been reported nearby.
Minimum magnitude displayed is 2.5.

Coastal Water Temperatures

Plats Temperatur
No Stations Reporting

Nearby Weather Stations